createdAt,value
2022-09-26T00:01:36.426Z,10.20
2022-09-26T00:04:29.096Z,9.80
2022-09-26T00:06:59.071Z,9.40
2022-09-26T00:09:28.552Z,9.93
2022-09-26T00:11:55.782Z,12.10
2022-09-26T00:14:27.259Z,11.10
2022-09-26T00:16:55.550Z,10.93
2022-09-26T00:19:23.743Z,11.90
2022-09-26T00:21:50.842Z,10.03
2022-09-26T00:24:18.445Z,10.27
2022-09-26T00:26:45.504Z,10.77
2022-09-26T00:29:14.041Z,9.67
2022-09-26T00:31:45.121Z,10.70
2022-09-26T00:34:14.908Z,9.90
2022-09-26T00:36:42.071Z,10.60
2022-09-26T00:39:12.506Z,9.37
2022-09-26T00:41:40.040Z,10.27
2022-09-26T00:44:33.960Z,11.53
2022-09-26T00:47:01.276Z,11.00
2022-09-26T00:49:34.925Z,9.80
2022-09-26T00:52:29.971Z,10.67
2022-09-26T00:55:01.558Z,10.23
2022-09-26T00:57:38.452Z,11.30
2022-09-26T01:00:10.920Z,10.57
2022-09-26T01:02:38.465Z,10.00
2022-09-26T01:05:07.982Z,10.90
2022-09-26T01:07:35.620Z,11.77
2022-09-26T01:10:06.483Z,11.00
2022-09-26T01:12:37.259Z,11.40
2022-09-26T01:15:09.120Z,10.40
2022-09-26T01:17:40.192Z,10.47
2022-09-26T01:20:26.211Z,10.20
2022-09-26T01:23:40.624Z,10.77
2022-09-26T01:26:58.673Z,10.70
2022-09-26T01:30:05.961Z,10.37
2022-09-26T01:32:57.961Z,10.60
2022-09-26T01:35:24.971Z,11.07
2022-09-26T01:38:23.072Z,10.70
2022-09-26T01:41:49.251Z,13.10
2022-09-26T01:44:47.151Z,10.70
2022-09-26T01:47:18.601Z,10.70
2022-09-26T01:49:53.216Z,11.60
2022-09-26T01:52:40.031Z,11.10
2022-09-26T01:55:34.861Z,11.33
2022-09-26T01:58:34.363Z,12.90
2022-09-26T02:01:09.239Z,10.93
2022-09-26T02:03:43.204Z,10.73
2022-09-26T02:06:21.192Z,11.70
2022-09-26T02:09:01.953Z,11.90
2022-09-26T02:11:29.091Z,11.33
2022-09-26T02:14:04.372Z,12.23
2022-09-26T02:16:47.800Z,10.07
2022-09-26T02:20:18.932Z,11.80
2022-09-26T02:22:46.722Z,11.53
2022-09-26T02:25:13.811Z,11.13
2022-09-26T02:27:40.924Z,10.97
2022-09-26T02:30:09.330Z,10.63
2022-09-26T02:32:36.591Z,13.27
2022-09-26T02:35:34.921Z,10.67
2022-09-26T02:38:05.873Z,10.60
2022-09-26T02:41:07.082Z,11.37
2022-09-26T02:43:52.183Z,10.83
2022-09-26T02:46:31.715Z,10.50
2022-09-26T02:49:40.114Z,12.30
2022-09-26T02:52:50.912Z,12.17
2022-09-26T02:55:32.974Z,11.70
2022-09-26T02:58:37.132Z,11.80
2022-09-26T03:01:22.626Z,10.47
2022-09-26T03:03:59.771Z,10.40
2022-09-26T03:06:36.462Z,11.90
2022-09-26T03:09:06.185Z,11.00
2022-09-26T03:11:35.523Z,10.93
2022-09-26T03:14:03.802Z,10.83
2022-09-26T03:16:40.492Z,11.17
2022-09-26T03:19:27.042Z,10.63
2022-09-26T03:21:55.099Z,11.13
2022-09-26T03:24:24.682Z,10.60
2022-09-26T03:26:52.091Z,10.63
2022-09-26T03:29:20.656Z,10.67
2022-09-26T03:31:50.575Z,11.07
2022-09-26T03:34:18.383Z,9.90
2022-09-26T03:36:46.103Z,11.50
2022-09-26T03:39:13.531Z,10.50
2022-09-26T03:41:42.382Z,11.30
2022-09-26T03:44:09.381Z,10.30
2022-09-26T03:46:39.821Z,9.77
2022-09-26T03:49:07.326Z,10.60
2022-09-26T03:51:34.702Z,10.20
2022-09-26T03:54:01.673Z,10.10
2022-09-26T03:56:28.893Z,11.73
2022-09-26T03:58:55.762Z,10.80
2022-09-26T04:01:23.426Z,11.93
2022-09-26T04:03:51.482Z,12.13
2022-09-26T04:06:20.802Z,14.47
2022-09-26T04:08:51.061Z,15.00
2022-09-26T04:11:22.002Z,13.40
2022-09-26T04:13:52.543Z,16.90
2022-09-26T04:16:22.931Z,19.50
2022-09-26T04:18:52.403Z,20.00
2022-09-26T04:21:19.344Z,22.03
2022-09-26T04:23:46.383Z,20.33
2022-09-26T04:26:22.961Z,16.43
2022-09-26T04:28:55.345Z,15.60
2022-09-26T04:31:24.380Z,14.27
2022-09-26T04:33:51.842Z,15.30
2022-09-26T04:36:18.929Z,13.60
2022-09-26T04:38:46.035Z,14.53
2022-09-26T04:41:22.532Z,15.90
2022-09-26T04:43:50.041Z,16.10
2022-09-26T04:46:23.747Z,14.50
2022-09-26T04:48:55.571Z,15.53
2022-09-26T04:51:25.092Z,13.40
2022-09-26T04:53:52.482Z,14.20
2022-09-26T04:56:22.171Z,15.00
2022-09-26T04:58:49.830Z,16.00
2022-09-26T05:01:21.430Z,15.50
2022-09-26T05:03:48.839Z,15.20
2022-09-26T05:06:17.853Z,15.20
2022-09-26T05:08:49.502Z,15.93
2022-09-26T05:11:18.745Z,15.83
2022-09-26T05:13:49.017Z,17.17
2022-09-26T05:16:19.680Z,17.00
2022-09-26T05:18:53.687Z,16.23
2022-09-26T05:21:21.039Z,18.33
2022-09-26T05:24:06.696Z,18.57
2022-09-26T05:26:44.661Z,16.40
2022-09-26T05:29:12.585Z,14.97
2022-09-26T05:31:40.360Z,14.53
2022-09-26T05:34:15.442Z,13.67
2022-09-26T05:36:44.054Z,14.40
2022-09-26T05:39:31.321Z,12.90
2022-09-26T05:41:59.792Z,13.70
2022-09-26T05:44:27.657Z,13.10
2022-09-26T05:46:55.366Z,13.60
2022-09-26T05:49:22.412Z,13.27
2022-09-26T05:51:49.472Z,13.70
2022-09-26T05:54:16.771Z,14.20
2022-09-26T05:56:43.760Z,13.37
2022-09-26T05:59:10.911Z,13.03
2022-09-26T06:01:37.935Z,14.27
2022-09-26T06:04:05.111Z,13.13
2022-09-26T06:06:32.152Z,12.20
2022-09-26T06:09:00.171Z,12.77
2022-09-26T06:11:31.287Z,11.90
2022-09-26T06:14:01.198Z,13.30
2022-09-26T06:16:29.286Z,12.20
2022-09-26T06:18:56.814Z,12.60
2022-09-26T06:21:24.612Z,13.63
2022-09-26T06:23:51.611Z,12.80
2022-09-26T06:26:25.155Z,12.77
2022-09-26T06:29:00.802Z,12.80
2022-09-26T06:31:29.270Z,12.60
2022-09-26T06:33:56.741Z,12.77
2022-09-26T06:36:25.073Z,12.90
2022-09-26T06:38:54.072Z,13.17
2022-09-26T06:41:21.505Z,13.77
2022-09-26T06:43:49.310Z,13.80
2022-09-26T06:46:16.552Z,12.63
2022-09-26T06:48:44.167Z,13.23
2022-09-26T06:51:14.102Z,13.83
2022-09-26T06:53:43.090Z,12.93
2022-09-26T06:56:11.224Z,12.77
2022-09-26T06:58:39.632Z,10.73
2022-09-26T07:01:07.115Z,11.30
2022-09-26T07:03:34.145Z,12.20
2022-09-26T07:06:01.259Z,12.50
2022-09-26T07:08:57.281Z,11.90
2022-09-26T07:11:35.115Z,11.60
2022-09-26T07:14:02.785Z,10.73
2022-09-26T07:16:30.654Z,11.33
2022-09-26T07:18:58.359Z,10.43
2022-09-26T07:21:25.352Z,11.37
2022-09-26T07:23:58.128Z,11.20
2022-09-26T07:26:25.111Z,10.20
2022-09-26T07:28:54.701Z,12.07
2022-09-26T07:31:26.417Z,11.00
2022-09-26T07:33:54.174Z,11.33
2022-09-26T07:36:21.557Z,12.63
2022-09-26T07:38:49.573Z,11.63
2022-09-26T07:41:17.952Z,12.77
2022-09-26T07:46:50.551Z,11.13
2022-09-26T07:49:35.885Z,10.20
2022-09-26T07:52:03.082Z,11.57
2022-09-26T07:54:30.034Z,11.73
2022-09-26T07:56:57.531Z,9.80
2022-09-26T07:59:24.460Z,11.37
2022-09-26T08:01:54.940Z,10.67
2022-09-26T08:04:21.921Z,10.77
2022-09-26T08:06:50.326Z,9.63
2022-09-26T08:09:17.323Z,9.23
2022-09-26T08:11:44.842Z,9.40
2022-09-26T08:14:11.935Z,11.20
2022-09-26T08:16:42.530Z,10.57
2022-09-26T08:19:17.439Z,11.97
2022-09-26T08:21:44.495Z,10.83
2022-09-26T08:24:11.696Z,10.87
2022-09-26T08:26:44.378Z,10.93
2022-09-26T08:29:12.698Z,9.70
2022-09-26T08:31:39.886Z,11.60
2022-09-26T08:34:08.704Z,10.70
2022-09-26T08:36:38.592Z,9.90
2022-09-26T08:39:06.236Z,9.40
2022-09-26T08:41:35.990Z,7.77
2022-09-26T08:44:30.701Z,8.17
2022-09-26T08:47:06.748Z,9.80
2022-09-26T08:50:23.461Z,9.03
2022-09-26T08:53:05.882Z,7.97
2022-09-26T08:55:45.662Z,8.73
2022-09-26T08:58:32.153Z,8.40
2022-09-26T09:01:10.277Z,7.40
2022-09-26T09:03:54.963Z,7.87
2022-09-26T09:06:22.060Z,8.50
2022-09-26T09:08:56.540Z,8.47
2022-09-26T09:11:53.660Z,9.10
2022-09-26T09:14:40.110Z,8.87
2022-09-26T09:17:21.862Z,7.17
2022-09-26T09:20:04.290Z,7.53
2022-09-26T09:23:11.815Z,8.10
2022-09-26T09:25:55.316Z,8.20
2022-09-26T09:28:33.871Z,7.40
2022-09-26T09:31:07.315Z,7.63
2022-09-26T09:33:38.771Z,7.93
2022-09-26T09:36:27.743Z,8.67
2022-09-26T09:39:05.475Z,9.47
2022-09-26T09:41:56.584Z,9.03
2022-09-26T09:44:47.819Z,7.67
2022-09-26T09:47:17.583Z,7.77
2022-09-26T09:49:48.599Z,8.07
2022-09-26T09:52:42.836Z,7.80
2022-09-26T09:55:52.821Z,8.10
2022-09-26T09:59:04.724Z,7.27
2022-09-26T10:01:42.171Z,9.20
2022-09-26T10:04:44.759Z,8.73
2022-09-26T10:07:12.742Z,7.70
2022-09-26T10:09:44.056Z,9.00
2022-09-26T10:12:24.992Z,7.03
2022-09-26T10:15:07.813Z,7.30
2022-09-26T10:17:35.569Z,6.93
2022-09-26T10:20:02.645Z,6.10
2022-09-26T10:22:45.794Z,5.50
2022-09-26T10:25:22.652Z,5.03
2022-09-26T10:27:55.411Z,4.90
2022-09-26T10:30:28.689Z,4.60
2022-09-26T10:32:59.991Z,4.10
2022-09-26T10:35:51.614Z,4.47
2022-09-26T10:38:27.467Z,4.20
2022-09-26T10:41:03.745Z,4.60
2022-09-26T10:43:38.129Z,5.30
2022-09-26T10:46:19.458Z,3.97
2022-09-26T10:48:55.195Z,4.63
2022-09-26T10:51:39.950Z,4.47
2022-09-26T10:54:17.311Z,4.60
2022-09-26T10:56:49.894Z,4.00
2022-09-26T10:59:19.688Z,3.73
2022-09-26T11:01:51.698Z,3.50
2022-09-26T11:04:44.676Z,4.30
2022-09-26T11:07:25.383Z,4.27
2022-09-26T11:10:00.206Z,3.37
2022-09-26T11:12:39.881Z,3.90
2022-09-26T11:15:14.108Z,3.20
2022-09-26T11:17:53.722Z,2.50
2022-09-26T11:20:32.602Z,2.60
2022-09-26T11:23:19.766Z,2.60
2022-09-26T11:26:01.233Z,2.80
2022-09-26T11:29:03.919Z,2.90
2022-09-26T11:31:43.024Z,3.00
2022-09-26T11:34:18.137Z,2.50
2022-09-26T11:37:42.432Z,2.60
2022-09-26T11:41:07.526Z,2.70
2022-09-26T11:43:55.783Z,2.90
2022-09-26T11:46:48.587Z,2.90
2022-09-26T11:49:39.951Z,2.30
2022-09-26T11:52:52.013Z,2.20
2022-09-26T11:56:06.821Z,2.10
2022-09-26T11:58:46.139Z,2.20
2022-09-26T12:01:35.698Z,2.13
2022-09-26T12:04:50.124Z,2.00
2022-09-26T12:07:43.955Z,1.70
2022-09-26T12:10:29.251Z,2.10
2022-09-26T12:13:12.221Z,1.67
2022-09-26T12:15:59.933Z,2.03
2022-09-26T12:18:46.188Z,1.70
2022-09-26T12:21:34.894Z,1.67
2022-09-26T12:24:28.263Z,1.77
2022-09-26T12:27:26.528Z,1.80
2022-09-26T12:30:11.165Z,2.00
2022-09-26T12:32:58.695Z,2.30
2022-09-26T12:35:58.523Z,1.80
2022-09-26T12:38:56.351Z,1.40
2022-09-26T12:42:00.830Z,1.50
2022-09-26T12:44:51.244Z,1.53
2022-09-26T12:48:05.193Z,1.40
2022-09-26T12:51:07.211Z,1.63
2022-09-26T12:53:53.572Z,1.60
2022-09-26T12:56:35.118Z,7.27
2022-09-26T12:59:43.380Z,23.40
2022-09-26T13:02:17.247Z,7.23
2022-09-26T13:05:14.204Z,1.73
2022-09-26T13:08:34.352Z,2.70
2022-09-26T13:11:32.278Z,1.40
2022-09-26T13:14:15.501Z,1.40
2022-09-26T13:17:14.247Z,1.23
2022-09-26T13:19:51.620Z,1.20
2022-09-26T13:22:27.806Z,1.00
2022-09-26T13:25:10.828Z,1.63
2022-09-26T13:28:06.521Z,1.57
2022-09-26T13:30:38.560Z,1.60
2022-09-26T13:33:25.816Z,1.83
2022-09-26T13:35:56.751Z,1.30
2022-09-26T13:38:34.953Z,1.40
2022-09-26T13:41:28.610Z,1.40
2022-09-26T13:43:58.901Z,1.30
2022-09-26T13:46:53.621Z,2.10
2022-09-26T13:49:33.944Z,1.73
2022-09-26T13:52:40.300Z,1.60
2022-09-26T13:55:20.221Z,2.07
2022-09-26T13:58:00.205Z,2.23
2022-09-26T14:00:30.682Z,1.73
2022-09-26T14:03:19.429Z,1.73
2022-09-26T14:06:07.929Z,2.23
2022-09-26T14:08:55.221Z,1.80
2022-09-26T14:11:30.656Z,1.60
2022-09-26T14:14:18.028Z,2.37
2022-09-26T14:16:57.904Z,1.80
2022-09-26T14:19:41.734Z,2.17
2022-09-26T14:22:19.184Z,2.10
2022-09-26T14:24:48.132Z,2.63
2022-09-26T14:27:21.041Z,2.30
2022-09-26T14:30:20.460Z,2.80
2022-09-26T14:32:47.632Z,2.87
2022-09-26T14:35:36.291Z,3.90
2022-09-26T14:38:23.898Z,3.27
2022-09-26T14:40:59.888Z,4.60
2022-09-26T14:43:31.371Z,4.00
2022-09-26T14:46:14.673Z,4.30
2022-09-26T14:48:43.836Z,2.80
2022-09-26T14:51:11.257Z,2.73
2022-09-26T14:53:50.279Z,3.40
2022-09-26T14:56:38.612Z,3.50
2022-09-26T14:59:34.450Z,3.30
2022-09-26T15:02:40.561Z,3.43
2022-09-26T15:05:10.319Z,3.70
2022-09-26T15:07:46.044Z,3.00
2022-09-26T15:10:13.562Z,3.03
2022-09-26T15:12:51.258Z,4.10
2022-09-26T15:16:10.184Z,3.97
2022-09-26T15:19:20.274Z,2.87
2022-09-26T15:22:00.702Z,3.00
2022-09-26T15:24:37.091Z,3.90
2022-09-26T15:27:27.390Z,3.07
2022-09-26T15:30:04.007Z,3.43
2022-09-26T15:32:33.784Z,3.50
2022-09-26T15:35:02.695Z,3.50
2022-09-26T15:37:34.675Z,4.50
2022-09-26T15:40:26.669Z,3.77
2022-09-26T15:43:22.611Z,3.90
2022-09-26T15:45:59.568Z,3.70
2022-09-26T15:48:32.901Z,3.67
2022-09-26T15:51:20.702Z,3.70
2022-09-26T15:54:03.352Z,3.43
2022-09-26T15:56:43.704Z,3.50
2022-09-26T15:59:41.398Z,4.00
2022-09-26T16:02:32.982Z,3.43
2022-09-26T16:05:00.837Z,3.83
2022-09-26T16:07:31.012Z,3.57
2022-09-26T16:09:59.184Z,3.57
2022-09-26T16:12:30.663Z,3.40
2022-09-26T16:15:17.051Z,3.80
2022-09-26T16:17:53.479Z,5.13
2022-09-26T16:20:21.023Z,3.80
2022-09-26T16:22:52.101Z,4.00
2022-09-26T16:25:19.424Z,3.67
2022-09-26T16:27:47.578Z,3.63
2022-09-26T16:30:30.202Z,3.80
2022-09-26T16:33:03.082Z,3.17
2022-09-26T16:35:35.683Z,4.50
2022-09-26T16:38:36.534Z,4.37
2022-09-26T16:41:42.003Z,4.00
2022-09-26T16:44:41.543Z,4.23
2022-09-26T16:47:49.441Z,4.57
2022-09-26T16:50:28.995Z,5.10
2022-09-26T16:52:56.372Z,4.23
2022-09-26T16:55:25.942Z,6.30
2022-09-26T16:57:56.592Z,5.20
2022-09-26T17:00:51.387Z,5.40
2022-09-26T17:03:24.031Z,5.60
2022-09-26T17:05:53.020Z,5.20
2022-09-26T17:08:20.247Z,4.33
2022-09-26T17:10:47.869Z,6.10
2022-09-26T17:13:23.174Z,7.50
2022-09-26T17:15:56.388Z,7.90
2022-09-26T17:18:33.454Z,8.63
2022-09-26T17:21:01.952Z,7.87
2022-09-26T17:23:42.047Z,7.70
2022-09-26T17:26:20.112Z,9.40
2022-09-26T17:28:47.802Z,9.37
2022-09-26T17:31:21.503Z,10.97
2022-09-26T17:33:54.373Z,8.10
2022-09-26T17:36:28.397Z,8.30
2022-09-26T17:38:59.950Z,9.53
2022-09-26T17:41:29.173Z,14.17
2022-09-26T17:44:01.809Z,17.77
2022-09-26T17:46:30.094Z,8.23
2022-09-26T17:48:58.289Z,8.00
2022-09-26T17:51:26.238Z,8.10
2022-09-26T17:53:54.353Z,7.90
2022-09-26T17:56:27.836Z,8.97
2022-09-26T17:59:03.263Z,14.00
2022-09-26T18:01:36.708Z,8.40
2022-09-26T18:04:12.985Z,9.90
2022-09-26T18:06:44.065Z,10.80
2022-09-26T18:09:17.128Z,8.20
2022-09-26T18:11:56.174Z,7.63
2022-09-26T18:14:23.622Z,8.50
2022-09-26T18:16:50.662Z,8.83
2022-09-26T18:19:17.775Z,8.73
2022-09-26T18:21:45.302Z,7.20
2022-09-26T18:24:20.019Z,8.80
2022-09-26T18:26:51.042Z,15.20
2022-09-26T18:29:28.573Z,7.63
2022-09-26T18:31:56.993Z,7.30
2022-09-26T18:34:26.215Z,10.37
2022-09-26T18:36:58.124Z,18.17
2022-09-26T18:39:26.390Z,20.07
2022-09-26T18:42:13.177Z,14.97
2022-09-26T18:44:44.240Z,12.10
2022-09-26T18:47:17.586Z,8.60
2022-09-26T18:49:47.256Z,12.00
2022-09-26T18:52:18.239Z,9.10
2022-09-26T18:55:09.794Z,9.00
2022-09-26T18:57:55.609Z,8.37
2022-09-26T19:00:30.228Z,7.40
2022-09-26T19:02:59.895Z,7.33
2022-09-26T19:05:27.608Z,8.70
2022-09-26T19:07:54.727Z,9.77
2022-09-26T19:10:24.495Z,10.00
2022-09-26T19:12:58.401Z,11.17
2022-09-26T19:15:29.747Z,12.37
2022-09-26T19:17:58.243Z,13.97
2022-09-26T19:20:25.866Z,14.20
2022-09-26T19:22:55.919Z,12.50
2022-09-26T19:25:23.014Z,8.93
2022-09-26T19:28:05.472Z,7.87
2022-09-26T19:30:42.270Z,8.50
2022-09-26T19:33:21.466Z,6.40
2022-09-26T19:35:57.002Z,6.93
2022-09-26T19:38:32.512Z,6.17
2022-09-26T19:41:06.416Z,6.50
2022-09-26T19:43:48.565Z,5.97
2022-09-26T19:46:35.513Z,6.07
2022-09-26T19:49:27.460Z,6.10
2022-09-26T19:52:08.300Z,6.60
2022-09-26T19:54:47.712Z,6.90
2022-09-26T19:57:33.865Z,6.67
2022-09-26T20:00:08.899Z,7.00
2022-09-26T20:02:47.641Z,6.30
2022-09-26T20:05:32.221Z,7.37
2022-09-26T20:08:00.285Z,7.00
2022-09-26T20:10:27.562Z,6.70
2022-09-26T20:12:54.572Z,7.77
2022-09-26T20:15:21.683Z,7.67
2022-09-26T20:17:49.668Z,7.60
2022-09-26T20:20:23.952Z,7.63
2022-09-26T20:22:53.845Z,8.70
2022-09-26T20:25:28.598Z,7.17
2022-09-26T20:27:57.242Z,6.83
2022-09-26T20:30:44.281Z,8.30
2022-09-26T20:33:13.261Z,10.60
2022-09-26T20:35:47.719Z,10.03
2022-09-26T20:38:33.595Z,15.80
2022-09-26T20:41:12.681Z,9.50
2022-09-26T20:43:41.084Z,11.13
2022-09-26T20:46:11.224Z,10.87
2022-09-26T20:48:43.021Z,9.60
2022-09-26T20:51:21.322Z,8.80
2022-09-26T20:53:48.352Z,9.30
2022-09-26T20:56:21.071Z,9.27
2022-09-26T20:58:49.256Z,10.90
2022-09-26T21:01:20.624Z,9.77
2022-09-26T21:03:52.831Z,11.13
2022-09-26T21:06:27.043Z,10.60
2022-09-26T21:08:54.235Z,10.37
2022-09-26T21:11:22.240Z,8.27
2022-09-26T21:13:49.351Z,8.20
2022-09-26T21:16:20.756Z,8.90
2022-09-26T21:18:51.709Z,8.23
2022-09-26T21:21:24.940Z,9.67
2022-09-26T21:23:52.734Z,8.10
2022-09-26T21:26:24.925Z,9.37
2022-09-26T21:28:54.422Z,9.03
2022-09-26T21:31:34.034Z,9.03
2022-09-26T21:34:02.652Z,8.73
2022-09-26T21:36:37.873Z,8.50
2022-09-26T21:39:05.775Z,9.50
2022-09-26T21:41:33.495Z,10.20
2022-09-26T21:44:30.192Z,10.60
2022-09-26T21:46:57.141Z,9.63
2022-09-26T21:49:25.047Z,10.23
2022-09-26T21:52:12.332Z,9.80
2022-09-26T21:54:45.031Z,10.10
2022-09-26T21:57:35.483Z,11.27
2022-09-26T22:00:07.733Z,10.70
2022-09-26T22:02:34.920Z,10.47
2022-09-26T22:05:02.606Z,10.40
2022-09-26T22:07:30.474Z,8.90
2022-09-26T22:09:58.338Z,8.33
2022-09-26T22:12:25.523Z,7.63
2022-09-26T22:14:53.065Z,8.37
2022-09-26T22:17:20.314Z,10.50
2022-09-26T22:19:47.588Z,7.63
2022-09-26T22:22:15.660Z,5.10
2022-09-26T22:24:42.885Z,5.53
2022-09-26T22:27:10.286Z,5.50
2022-09-26T22:29:37.465Z,5.67
2022-09-26T22:32:05.362Z,5.30
2022-09-26T22:34:32.935Z,6.30
2022-09-26T22:37:00.045Z,5.33
2022-09-26T22:39:27.153Z,4.77
2022-09-26T22:41:54.208Z,5.10
2022-09-26T22:44:21.506Z,5.43
2022-09-26T22:46:48.695Z,5.73
2022-09-26T22:49:15.957Z,4.93
2022-09-26T22:51:43.178Z,5.60
2022-09-26T22:54:10.421Z,7.03
2022-09-26T22:56:37.604Z,6.83
2022-09-26T22:59:04.765Z,5.00
2022-09-26T23:01:31.926Z,4.33
2022-09-26T23:04:00.569Z,3.23
2022-09-26T23:06:28.935Z,2.87
2022-09-26T23:08:56.337Z,3.03
2022-09-26T23:11:24.725Z,2.27
2022-09-26T23:13:53.309Z,3.70
2022-09-26T23:16:24.470Z,3.37
2022-09-26T23:18:52.770Z,3.40
2022-09-26T23:21:25.755Z,3.57
2022-09-26T23:23:56.616Z,3.90
2022-09-26T23:26:30.185Z,3.70
2022-09-26T23:28:59.255Z,4.10
2022-09-26T23:31:28.268Z,4.60
2022-09-26T23:33:56.415Z,4.73
2022-09-26T23:36:24.927Z,5.33
2022-09-26T23:38:52.204Z,5.53
2022-09-26T23:41:19.481Z,5.13
2022-09-26T23:43:46.714Z,6.60
2022-09-26T23:46:14.157Z,5.60
2022-09-26T23:48:41.769Z,5.77
2022-09-26T23:51:09.897Z,6.17
2022-09-26T23:53:37.182Z,5.70
2022-09-26T23:56:10.774Z,5.10
2022-09-26T23:58:38.704Z,6.03
